sensor_id;sensor_type;location;lat;lon;timestamp;temperature;humidity
2010;DHT22;1008;47.404;8.502;2023-04-06T00:00:24;6.70;99.90
2010;DHT22;1008;47.404;8.502;2023-04-06T00:02:51;6.80;99.90
2010;DHT22;1008;47.404;8.502;2023-04-06T00:05:18;6.80;99.90
2010;DHT22;1008;47.404;8.502;2023-04-06T00:07:45;6.70;99.90
2010;DHT22;1008;47.404;8.502;2023-04-06T00:10:12;6.50;99.90
2010;DHT22;1008;47.404;8.502;2023-04-06T00:12:39;6.50;99.90
2010;DHT22;1008;47.404;8.502;2023-04-06T00:15:08;6.40;99.90
2010;DHT22;1008;47.404;8.502;2023-04-06T00:17:35;6.40;99.90
2010;DHT22;1008;47.404;8.502;2023-04-06T00:20:02;6.30;99.90
2010;DHT22;1008;47.404;8.502;2023-04-06T00:22:29;6.40;99.90
2010;DHT22;1008;47.404;8.502;2023-04-06T00:24:56;6.40;99.90
2010;DHT22;1008;47.404;8.502;2023-04-06T00:27:23;6.50;99.90
2010;DHT22;1008;47.404;8.502;2023-04-06T00:29:50;6.30;99.90
2010;DHT22;1008;47.404;8.502;2023-04-06T00:32:18;6.50;99.90
2010;DHT22;1008;47.404;8.502;2023-04-06T00:34:45;6.10;99.90
2010;DHT22;1008;47.404;8.502;2023-04-06T00:37:12;6.10;99.90
2010;DHT22;1008;47.404;8.502;2023-04-06T00:39:39;6.10;4.20
2010;DHT22;1008;47.404;8.502;2023-04-06T00:42:10;6.20;81.90
2010;DHT22;1008;47.404;8.502;2023-04-06T00:44:38;6.10;82.30
2010;DHT22;1008;47.404;8.502;2023-04-06T00:47:04;6.10;83.20
2010;DHT22;1008;47.404;8.502;2023-04-06T00:49:33;6.20;83.30
2010;DHT22;1008;47.404;8.502;2023-04-06T00:52:01;6.20;82.90
2010;DHT22;1008;47.404;8.502;2023-04-06T00:54:28;6.20;83.20
2010;DHT22;1008;47.404;8.502;2023-04-06T00:56:55;6.10;83.50
2010;DHT22;1008;47.404;8.502;2023-04-06T00:59:22;6.10;84.00
2010;DHT22;1008;47.404;8.502;2023-04-06T01:01:49;6.10;84.10
2010;DHT22;1008;47.404;8.502;2023-04-06T01:04:16;6.00;84.30
2010;DHT22;1008;47.404;8.502;2023-04-06T01:06:44;6.00;84.80
2010;DHT22;1008;47.404;8.502;2023-04-06T01:09:11;6.10;85.20
2010;DHT22;1008;47.404;8.502;2023-04-06T01:11:37;6.40;85.30
2010;DHT22;1008;47.404;8.502;2023-04-06T01:14:04;6.20;84.90
2010;DHT22;1008;47.404;8.502;2023-04-06T01:16:31;6.20;84.70
2010;DHT22;1008;47.404;8.502;2023-04-06T01:18:58;6.20;84.70
2010;DHT22;1008;47.404;8.502;2023-04-06T01:21:25;6.00;86.00
2010;DHT22;1008;47.404;8.502;2023-04-06T01:23:53;6.00;85.20
2010;DHT22;1008;47.404;8.502;2023-04-06T01:26:20;5.90;85.30
2010;DHT22;1008;47.404;8.502;2023-04-06T01:28:47;5.90;86.00
2010;DHT22;1008;47.404;8.502;2023-04-06T01:31:14;5.90;86.00
2010;DHT22;1008;47.404;8.502;2023-04-06T01:33:40;6.00;85.90
2010;DHT22;1008;47.404;8.502;2023-04-06T01:36:08;5.90;85.70
2010;DHT22;1008;47.404;8.502;2023-04-06T01:38:34;5.80;85.80
2010;DHT22;1008;47.404;8.502;2023-04-06T01:41:03;5.80;86.20
2010;DHT22;1008;47.404;8.502;2023-04-06T01:43:30;5.80;86.50
2010;DHT22;1008;47.404;8.502;2023-04-06T01:45:57;5.80;87.20
2010;DHT22;1008;47.404;8.502;2023-04-06T01:48:23;5.70;88.00
2010;DHT22;1008;47.404;8.502;2023-04-06T01:50:50;5.60;88.70
2010;DHT22;1008;47.404;8.502;2023-04-06T01:53:17;5.50;89.50
2010;DHT22;1008;47.404;8.502;2023-04-06T01:55:44;5.60;90.20
2010;DHT22;1008;47.404;8.502;2023-04-06T01:58:12;5.40;90.60
2010;DHT22;1008;47.404;8.502;2023-04-06T02:00:39;5.40;90.80
2010;DHT22;1008;47.404;8.502;2023-04-06T02:03:06;5.40;91.10
2010;DHT22;1008;47.404;8.502;2023-04-06T02:05:33;5.30;91.50
2010;DHT22;1008;47.404;8.502;2023-04-06T02:08:04;5.40;92.00
2010;DHT22;1008;47.404;8.502;2023-04-06T02:10:31;5.40;91.80
2010;DHT22;1008;47.404;8.502;2023-04-06T02:12:58;5.40;91.80
2010;DHT22;1008;47.404;8.502;2023-04-06T02:15:26;5.40;92.00
2010;DHT22;1008;47.404;8.502;2023-04-06T02:17:53;5.20;92.70
2010;DHT22;1008;47.404;8.502;2023-04-06T02:20:20;5.20;93.00
2010;DHT22;1008;47.404;8.502;2023-04-06T02:22:47;4.90;93.80
2010;DHT22;1008;47.404;8.502;2023-04-06T02:25:14;4.80;94.90
2010;DHT22;1008;47.404;8.502;2023-04-06T02:27:41;4.70;96.10
2010;DHT22;1008;47.404;8.502;2023-04-06T02:30:09;4.60;97.20
2010;DHT22;1008;47.404;8.502;2023-04-06T02:32:37;4.60;98.30
2010;DHT22;1008;47.404;8.502;2023-04-06T02:35:04;4.50;99.10
2010;DHT22;1008;47.404;8.502;2023-04-06T02:37:31;4.50;99.90
2010;DHT22;1008;47.404;8.502;2023-04-06T02:39:58;4.50;99.90
2010;DHT22;1008;47.404;8.502;2023-04-06T02:42:25;4.60;99.90
2010;DHT22;1008;47.404;8.502;2023-04-06T02:44:52;4.80;99.90
2010;DHT22;1008;47.404;8.502;2023-04-06T02:47:18;4.70;99.90
2010;DHT22;1008;47.404;8.502;2023-04-06T02:49:46;4.60;99.90
2010;DHT22;1008;47.404;8.502;2023-04-06T02:52:13;4.60;99.90
2010;DHT22;1008;47.404;8.502;2023-04-06T02:54:40;4.60;99.90
2010;DHT22;1008;47.404;8.502;2023-04-06T02:57:07;4.60;99.90
2010;DHT22;1008;47.404;8.502;2023-04-06T02:59:34;4.60;99.90
2010;DHT22;1008;47.404;8.502;2023-04-06T03:02:01;4.70;99.90
2010;DHT22;1008;47.404;8.502;2023-04-06T03:04:28;5.00;99.90
2010;DHT22;1008;47.404;8.502;2023-04-06T03:06:56;4.70;99.90
2010;DHT22;1008;47.404;8.502;2023-04-06T03:09:22;4.70;99.90
2010;DHT22;1008;47.404;8.502;2023-04-06T03:11:49;4.70;99.90
2010;DHT22;1008;47.404;8.502;2023-04-06T03:14:16;4.70;99.90
2010;DHT22;1008;47.404;8.502;2023-04-06T03:16:47;4.70;99.90
2010;DHT22;1008;47.404;8.502;2023-04-06T03:19:13;4.80;99.90
2010;DHT22;1008;47.404;8.502;2023-04-06T03:21:40;4.60;99.90
2010;DHT22;1008;47.404;8.502;2023-04-06T03:24:09;4.60;99.90
2010;DHT22;1008;47.404;8.502;2023-04-06T03:26:36;4.60;99.90
2010;DHT22;1008;47.404;8.502;2023-04-06T03:29:02;4.50;99.90
2010;DHT22;1008;47.404;8.502;2023-04-06T03:31:29;4.70;99.90
2010;DHT22;1008;47.404;8.502;2023-04-06T03:33:56;4.50;99.90
2010;DHT22;1008;47.404;8.502;2023-04-06T03:36:24;4.50;99.90
2010;DHT22;1008;47.404;8.502;2023-04-06T03:38:51;4.60;99.90
2010;DHT22;1008;47.404;8.502;2023-04-06T03:41:20;4.60;99.90
2010;DHT22;1008;47.404;8.502;2023-04-06T03:43:47;4.40;99.90
2010;DHT22;1008;47.404;8.502;2023-04-06T03:46:14;4.50;99.90
2010;DHT22;1008;47.404;8.502;2023-04-06T03:48:41;4.60;99.90
2010;DHT22;1008;47.404;8.502;2023-04-06T03:51:07;4.90;99.90
2010;DHT22;1008;47.404;8.502;2023-04-06T03:53:34;4.70;99.90
2010;DHT22;1008;47.404;8.502;2023-04-06T03:56:02;4.70;99.90
2010;DHT22;1008;47.404;8.502;2023-04-06T03:58:30;4.60;99.90
2010;DHT22;1008;47.404;8.502;2023-04-06T04:00:57;4.60;99.90
2010;DHT22;1008;47.404;8.502;2023-04-06T04:03:24;4.50;99.90
2010;DHT22;1008;47.404;8.502;2023-04-06T04:05:53;4.40;99.90
2010;DHT22;1008;47.404;8.502;2023-04-06T04:08:20;4.30;99.90
2010;DHT22;1008;47.404;8.502;2023-04-06T04:10:47;4.20;99.90
2010;DHT22;1008;47.404;8.502;2023-04-06T04:13:14;4.20;99.90
2010;DHT22;1008;47.404;8.502;2023-04-06T04:15:42;4.10;99.90
2010;DHT22;1008;47.404;8.502;2023-04-06T04:18:09;4.20;99.90
2010;DHT22;1008;47.404;8.502;2023-04-06T04:20:35;4.40;99.90
2010;DHT22;1008;47.404;8.502;2023-04-06T04:23:02;4.10;99.90
2010;DHT22;1008;47.404;8.502;2023-04-06T04:25:29;3.80;99.90
2010;DHT22;1008;47.404;8.502;2023-04-06T04:27:56;3.80;99.90
2010;DHT22;1008;47.404;8.502;2023-04-06T04:30:22;3.90;99.90
2010;DHT22;1008;47.404;8.502;2023-04-06T04:32:51;3.90;99.90
2010;DHT22;1008;47.404;8.502;2023-04-06T04:35:17;3.90;99.90
2010;DHT22;1008;47.404;8.502;2023-04-06T04:37:44;4.00;99.90
2010;DHT22;1008;47.404;8.502;2023-04-06T04:40:11;4.10;99.90
2010;DHT22;1008;47.404;8.502;2023-04-06T04:42:38;4.20;99.90
2010;DHT22;1008;47.404;8.502;2023-04-06T04:45:06;4.20;99.90
2010;DHT22;1008;47.404;8.502;2023-04-06T04:47:33;4.30;99.90
2010;DHT22;1008;47.404;8.502;2023-04-06T04:50:01;4.30;99.90
2010;DHT22;1008;47.404;8.502;2023-04-06T04:52:27;4.30;99.90
2010;DHT22;1008;47.404;8.502;2023-04-06T04:54:54;4.30;99.90
2010;DHT22;1008;47.404;8.502;2023-04-06T04:57:21;4.30;99.90
2010;DHT22;1008;47.404;8.502;2023-04-06T04:59:48;4.40;99.90
2010;DHT22;1008;47.404;8.502;2023-04-06T05:02:16;4.30;99.90
2010;DHT22;1008;47.404;8.502;2023-04-06T05:04:43;4.30;99.90
2010;DHT22;1008;47.404;8.502;2023-04-06T05:07:11;4.30;99.90
2010;DHT22;1008;47.404;8.502;2023-04-06T05:09:38;4.30;99.90
2010;DHT22;1008;47.404;8.502;2023-04-06T05:12:05;4.40;99.90
2010;DHT22;1008;47.404;8.502;2023-04-06T05:14:32;4.40;99.90
2010;DHT22;1008;47.404;8.502;2023-04-06T05:16:58;4.40;99.90
2010;DHT22;1008;47.404;8.502;2023-04-06T05:19:25;4.30;99.90
2010;DHT22;1008;47.404;8.502;2023-04-06T05:21:52;4.40;99.90
2010;DHT22;1008;47.404;8.502;2023-04-06T05:24:20;4.40;99.90
2010;DHT22;1008;47.404;8.502;2023-04-06T05:26:48;4.60;99.90
2010;DHT22;1008;47.404;8.502;2023-04-06T05:29:15;4.40;99.90
2010;DHT22;1008;47.404;8.502;2023-04-06T05:31:42;4.40;99.90
2010;DHT22;1008;47.404;8.502;2023-04-06T05:34:09;4.50;99.90
2010;DHT22;1008;47.404;8.502;2023-04-06T05:36:36;4.50;99.90
2010;DHT22;1008;47.404;8.502;2023-04-06T05:39:03;4.60;99.90
2010;DHT22;1008;47.404;8.502;2023-04-06T05:41:31;4.60;99.90
2010;DHT22;1008;47.404;8.502;2023-04-06T05:43:58;4.60;99.90
2010;DHT22;1008;47.404;8.502;2023-04-06T05:46:25;4.50;99.90
2010;DHT22;1008;47.404;8.502;2023-04-06T05:48:51;4.60;99.90
2010;DHT22;1008;47.404;8.502;2023-04-06T05:51:18;4.60;99.90
2010;DHT22;1008;47.404;8.502;2023-04-06T05:53:46;4.50;99.90
2010;DHT22;1008;47.404;8.502;2023-04-06T05:56:13;4.50;99.90
2010;DHT22;1008;47.404;8.502;2023-04-06T05:58:41;4.90;99.90
2010;DHT22;1008;47.404;8.502;2023-04-06T06:01:08;4.80;99.90
2010;DHT22;1008;47.404;8.502;2023-04-06T06:03:35;4.90;99.90
2010;DHT22;1008;47.404;8.502;2023-04-06T06:06:03;4.90;99.90
2010;DHT22;1008;47.404;8.502;2023-04-06T06:08:30;4.90;99.90
2010;DHT22;1008;47.404;8.502;2023-04-06T06:10:57;5.00;99.90
2010;DHT22;1008;47.404;8.502;2023-04-06T06:13:24;5.10;99.90
2010;DHT22;1008;47.404;8.502;2023-04-06T06:15:52;5.20;99.90
2010;DHT22;1008;47.404;8.502;2023-04-06T06:18:19;5.20;99.90
2010;DHT22;1008;47.404;8.502;2023-04-06T06:20:45;5.30;99.90
2010;DHT22;1008;47.404;8.502;2023-04-06T06:23:12;5.30;99.90
2010;DHT22;1008;47.404;8.502;2023-04-06T06:25:41;5.20;99.90
2010;DHT22;1008;47.404;8.502;2023-04-06T06:28:08;5.00;99.90
2010;DHT22;1008;47.404;8.502;2023-04-06T06:30:34;4.90;99.90
2010;DHT22;1008;47.404;8.502;2023-04-06T06:33:03;5.10;99.90
2010;DHT22;1008;47.404;8.502;2023-04-06T06:35:29;5.50;99.90
2010;DHT22;1008;47.404;8.502;2023-04-06T06:37:56;5.40;99.90
2010;DHT22;1008;47.404;8.502;2023-04-06T06:40:23;5.40;99.90
2010;DHT22;1008;47.404;8.502;2023-04-06T06:42:51;5.60;99.90
2010;DHT22;1008;47.404;8.502;2023-04-06T06:45:18;5.80;99.90
2010;DHT22;1008;47.404;8.502;2023-04-06T06:47:45;5.80;99.90
2010;DHT22;1008;47.404;8.502;2023-04-06T06:50:14;5.80;99.90
2010;DHT22;1008;47.404;8.502;2023-04-06T06:52:40;6.10;99.90
2010;DHT22;1008;47.404;8.502;2023-04-06T06:55:09;6.10;99.90
2010;DHT22;1008;47.404;8.502;2023-04-06T06:57:36;6.30;99.90
2010;DHT22;1008;47.404;8.502;2023-04-06T07:00:04;6.40;99.90
2010;DHT22;1008;47.404;8.502;2023-04-06T07:02:34;6.60;99.90
2010;DHT22;1008;47.404;8.502;2023-04-06T07:05:01;6.90;99.90
2010;DHT22;1008;47.404;8.502;2023-04-06T07:07:29;7.00;99.90
2010;DHT22;1008;47.404;8.502;2023-04-06T07:09:56;7.10;99.90
2010;DHT22;1008;47.404;8.502;2023-04-06T07:12:23;7.10;99.90
2010;DHT22;1008;47.404;8.502;2023-04-06T07:14:49;7.00;99.90
2010;DHT22;1008;47.404;8.502;2023-04-06T07:17:16;7.00;99.90
2010;DHT22;1008;47.404;8.502;2023-04-06T07:19:43;7.00;99.60
2010;DHT22;1008;47.404;8.502;2023-04-06T07:22:10;7.20;98.40
2010;DHT22;1008;47.404;8.502;2023-04-06T07:24:38;7.20;98.60
2010;DHT22;1008;47.404;8.502;2023-04-06T07:27:05;7.30;98.90
2010;DHT22;1008;47.404;8.502;2023-04-06T07:29:32;7.20;96.10
2010;DHT22;1008;47.404;8.502;2023-04-06T07:31:59;7.50;96.10
2010;DHT22;1008;47.404;8.502;2023-04-06T07:34:26;7.60;97.10
2010;DHT22;1008;47.404;8.502;2023-04-06T07:36:53;7.40;95.30
2010;DHT22;1008;47.404;8.502;2023-04-06T07:39:20;7.40;94.90
2010;DHT22;1008;47.404;8.502;2023-04-06T07:41:48;7.60;94.60
2010;DHT22;1008;47.404;8.502;2023-04-06T07:44:15;7.50;93.80
2010;DHT22;1008;47.404;8.502;2023-04-06T07:46:42;7.30;93.40
2010;DHT22;1008;47.404;8.502;2023-04-06T07:49:08;7.40;93.50
2010;DHT22;1008;47.404;8.502;2023-04-06T07:51:36;7.60;94.00
2010;DHT22;1008;47.404;8.502;2023-04-06T07:54:03;7.70;93.20
2010;DHT22;1008;47.404;8.502;2023-04-06T07:56:30;8.20;99.90
2010;DHT22;1008;47.404;8.502;2023-04-06T07:58:58;8.70;97.40
2010;DHT22;1008;47.404;8.502;2023-04-06T08:01:27;9.40;97.60
2010;DHT22;1008;47.404;8.502;2023-04-06T08:03:54;9.70;92.30
2010;DHT22;1008;47.404;8.502;2023-04-06T08:06:21;9.60;92.50
2010;DHT22;1008;47.404;8.502;2023-04-06T08:08:48;10.00;84.70
2010;DHT22;1008;47.404;8.502;2023-04-06T08:11:15;9.90;90.70
2010;DHT22;1008;47.404;8.502;2023-04-06T08:13:42;10.10;83.10
2010;DHT22;1008;47.404;8.502;2023-04-06T08:16:10;9.80;86.10
2010;DHT22;1008;47.404;8.502;2023-04-06T08:18:37;10.20;85.20
2010;DHT22;1008;47.404;8.502;2023-04-06T08:21:03;10.40;85.50
2010;DHT22;1008;47.404;8.502;2023-04-06T08:23:30;10.30;86.80
2010;DHT22;1008;47.404;8.502;2023-04-06T08:25:57;10.80;99.90
2010;DHT22;1008;47.404;8.502;2023-04-06T08:28:24;10.80;99.90
2010;DHT22;1008;47.404;8.502;2023-04-06T08:30:50;10.60;99.90
2010;DHT22;1008;47.404;8.502;2023-04-06T08:33:19;10.70;99.90
2010;DHT22;1008;47.404;8.502;2023-04-06T08:35:45;11.00;99.90
2010;DHT22;1008;47.404;8.502;2023-04-06T08:38:12;11.00;99.90
2010;DHT22;1008;47.404;8.502;2023-04-06T08:40:39;11.10;99.90
2010;DHT22;1008;47.404;8.502;2023-04-06T08:43:14;11.00;99.90
2010;DHT22;1008;47.404;8.502;2023-04-06T08:45:41;11.40;99.90
2010;DHT22;1008;47.404;8.502;2023-04-06T08:48:09;11.60;99.90
2010;DHT22;1008;47.404;8.502;2023-04-06T08:50:38;11.70;99.90
2010;DHT22;1008;47.404;8.502;2023-04-06T08:53:06;12.40;99.90
2010;DHT22;1008;47.404;8.502;2023-04-06T08:55:33;12.20;99.90
2010;DHT22;1008;47.404;8.502;2023-04-06T08:58:01;12.40;99.90
2010;DHT22;1008;47.404;8.502;2023-04-06T09:00:28;12.50;99.90
2010;DHT22;1008;47.404;8.502;2023-04-06T09:02:57;13.00;99.90
2010;DHT22;1008;47.404;8.502;2023-04-06T09:05:25;13.20;99.90
2010;DHT22;1008;47.404;8.502;2023-04-06T09:07:53;13.30;99.90
2010;DHT22;1008;47.404;8.502;2023-04-06T09:10:21;13.30;99.90
2010;DHT22;1008;47.404;8.502;2023-04-06T09:12:49;13.20;99.90
2010;DHT22;1008;47.404;8.502;2023-04-06T09:15:20;12.90;99.90
2010;DHT22;1008;47.404;8.502;2023-04-06T09:17:47;12.40;99.90
2010;DHT22;1008;47.404;8.502;2023-04-06T09:20:14;12.30;99.90
2010;DHT22;1008;47.404;8.502;2023-04-06T09:22:42;12.10;99.90
2010;DHT22;1008;47.404;8.502;2023-04-06T09:25:18;11.60;99.90
2010;DHT22;1008;47.404;8.502;2023-04-06T09:27:46;12.10;99.90
2010;DHT22;1008;47.404;8.502;2023-04-06T09:30:13;12.00;99.90
2010;DHT22;1008;47.404;8.502;2023-04-06T09:32:46;11.90;99.90
2010;DHT22;1008;47.404;8.502;2023-04-06T09:35:13;11.50;99.90
2010;DHT22;1008;47.404;8.502;2023-04-06T09:37:40;11.70;99.90
2010;DHT22;1008;47.404;8.502;2023-04-06T09:40:07;11.80;99.90
2010;DHT22;1008;47.404;8.502;2023-04-06T09:42:35;12.10;99.90
2010;DHT22;1008;47.404;8.502;2023-04-06T09:45:03;12.50;99.90
2010;DHT22;1008;47.404;8.502;2023-04-06T09:47:31;12.50;99.90
2010;DHT22;1008;47.404;8.502;2023-04-06T09:49:59;12.40;99.90
2010;DHT22;1008;47.404;8.502;2023-04-06T09:52:27;12.10;99.90
2010;DHT22;1008;47.404;8.502;2023-04-06T09:55:02;12.10;99.90
2010;DHT22;1008;47.404;8.502;2023-04-06T09:57:32;12.30;99.90
2010;DHT22;1008;47.404;8.502;2023-04-06T10:00:05;12.80;99.90
2010;DHT22;1008;47.404;8.502;2023-04-06T10:02:44;12.80;99.90
2010;DHT22;1008;47.404;8.502;2023-04-06T10:05:19;13.10;99.90
2010;DHT22;1008;47.404;8.502;2023-04-06T10:07:50;13.40;99.90
2010;DHT22;1008;47.404;8.502;2023-04-06T10:10:17;13.60;99.90
2010;DHT22;1008;47.404;8.502;2023-04-06T10:12:44;13.10;99.90
2010;DHT22;1008;47.404;8.502;2023-04-06T10:15:13;12.70;99.90
2010;DHT22;1008;47.404;8.502;2023-04-06T10:17:40;12.60;99.90
2010;DHT22;1008;47.404;8.502;2023-04-06T10:20:10;12.60;99.90
2010;DHT22;1008;47.404;8.502;2023-04-06T10:22:43;12.90;99.90
2010;DHT22;1008;47.404;8.502;2023-04-06T10:25:16;13.20;99.90
2010;DHT22;1008;47.404;8.502;2023-04-06T10:27:42;13.50;99.90
2010;DHT22;1008;47.404;8.502;2023-04-06T10:30:10;14.10;99.90
2010;DHT22;1008;47.404;8.502;2023-04-06T10:32:38;13.50;99.90
2010;DHT22;1008;47.404;8.502;2023-04-06T10:35:09;13.10;99.90
2010;DHT22;1008;47.404;8.502;2023-04-06T10:37:50;13.10;99.90
2010;DHT22;1008;47.404;8.502;2023-04-06T10:40:22;13.10;99.90
2010;DHT22;1008;47.404;8.502;2023-04-06T10:42:50;13.00;99.90
2010;DHT22;1008;47.404;8.502;2023-04-06T10:45:21;13.80;99.90
2010;DHT22;1008;47.404;8.502;2023-04-06T10:47:50;13.70;99.90
2010;DHT22;1008;47.404;8.502;2023-04-06T10:50:18;13.60;99.90
2010;DHT22;1008;47.404;8.502;2023-04-06T10:52:46;13.60;99.90
2010;DHT22;1008;47.404;8.502;2023-04-06T10:55:13;13.50;99.90
2010;DHT22;1008;47.404;8.502;2023-04-06T10:57:41;13.90;99.90
2010;DHT22;1008;47.404;8.502;2023-04-06T11:00:08;13.40;99.90
2010;DHT22;1008;47.404;8.502;2023-04-06T11:02:36;13.10;99.90
2010;DHT22;1008;47.404;8.502;2023-04-06T11:05:05;12.90;99.90
2010;DHT22;1008;47.404;8.502;2023-04-06T11:07:32;12.60;99.90
2010;DHT22;1008;47.404;8.502;2023-04-06T11:09:59;12.50;99.90
2010;DHT22;1008;47.404;8.502;2023-04-06T11:12:27;12.40;99.90
2010;DHT22;1008;47.404;8.502;2023-04-06T11:14:56;12.60;99.90
2010;DHT22;1008;47.404;8.502;2023-04-06T11:17:28;12.60;99.90
2010;DHT22;1008;47.404;8.502;2023-04-06T11:19:55;12.80;99.90
2010;DHT22;1008;47.404;8.502;2023-04-06T11:22:23;12.70;99.90
2010;DHT22;1008;47.404;8.502;2023-04-06T11:24:50;12.90;99.90
2010;DHT22;1008;47.404;8.502;2023-04-06T11:27:18;13.20;99.90
2010;DHT22;1008;47.404;8.502;2023-04-06T11:29:46;13.30;99.90
2010;DHT22;1008;47.404;8.502;2023-04-06T11:32:20;13.30;99.90
2010;DHT22;1008;47.404;8.502;2023-04-06T11:34:48;13.50;99.90
2010;DHT22;1008;47.404;8.502;2023-04-06T11:37:15;13.40;99.90
2010;DHT22;1008;47.404;8.502;2023-04-06T11:39:47;13.50;99.90
2010;DHT22;1008;47.404;8.502;2023-04-06T11:42:21;13.10;99.90
2010;DHT22;1008;47.404;8.502;2023-04-06T11:44:50;13.50;99.90
2010;DHT22;1008;47.404;8.502;2023-04-06T11:47:18;13.90;99.90
2010;DHT22;1008;47.404;8.502;2023-04-06T11:49:46;14.60;99.90
2010;DHT22;1008;47.404;8.502;2023-04-06T11:52:17;15.10;99.90
2010;DHT22;1008;47.404;8.502;2023-04-06T11:54:46;14.60;99.90
2010;DHT22;1008;47.404;8.502;2023-04-06T11:57:13;14.10;99.90
2010;DHT22;1008;47.404;8.502;2023-04-06T11:59:42;14.30;99.90
2010;DHT22;1008;47.404;8.502;2023-04-06T12:02:09;13.60;99.90
2010;DHT22;1008;47.404;8.502;2023-04-06T12:04:36;13.20;99.90
2010;DHT22;1008;47.404;8.502;2023-04-06T12:07:03;13.40;99.90
2010;DHT22;1008;47.404;8.502;2023-04-06T12:09:30;13.30;99.90
2010;DHT22;1008;47.404;8.502;2023-04-06T12:11:59;14.30;99.90
2010;DHT22;1008;47.404;8.502;2023-04-06T12:14:26;14.40;99.90
2010;DHT22;1008;47.404;8.502;2023-04-06T12:16:52;14.70;99.90
2010;DHT22;1008;47.404;8.502;2023-04-06T12:19:19;14.20;99.90
2010;DHT22;1008;47.404;8.502;2023-04-06T12:21:49;14.60;99.90
2010;DHT22;1008;47.404;8.502;2023-04-06T12:24:16;14.60;99.90
2010;DHT22;1008;47.404;8.502;2023-04-06T12:26:42;14.60;99.90
2010;DHT22;1008;47.404;8.502;2023-04-06T12:29:11;13.90;99.90
2010;DHT22;1008;47.404;8.502;2023-04-06T12:31:39;13.70;99.90
2010;DHT22;1008;47.404;8.502;2023-04-06T12:34:06;14.10;99.90
2010;DHT22;1008;47.404;8.502;2023-04-06T12:36:33;14.60;99.90
2010;DHT22;1008;47.404;8.502;2023-04-06T12:39:00;15.30;99.90
2010;DHT22;1008;47.404;8.502;2023-04-06T12:41:28;15.60;99.90
2010;DHT22;1008;47.404;8.502;2023-04-06T12:43:55;15.50;99.90
2010;DHT22;1008;47.404;8.502;2023-04-06T12:46:23;15.60;99.90
2010;DHT22;1008;47.404;8.502;2023-04-06T12:48:51;14.90;99.90
2010;DHT22;1008;47.404;8.502;2023-04-06T12:51:19;14.30;99.90
2010;DHT22;1008;47.404;8.502;2023-04-06T12:53:46;14.10;99.90
2010;DHT22;1008;47.404;8.502;2023-04-06T12:56:13;14.00;99.90
2010;DHT22;1008;47.404;8.502;2023-04-06T12:58:41;13.90;99.90
2010;DHT22;1008;47.404;8.502;2023-04-06T13:01:08;13.80;99.90
2010;DHT22;1008;47.404;8.502;2023-04-06T13:03:38;14.40;99.90
2010;DHT22;1008;47.404;8.502;2023-04-06T13:06:05;14.70;99.90
2010;DHT22;1008;47.404;8.502;2023-04-06T13:08:33;14.60;99.90
2010;DHT22;1008;47.404;8.502;2023-04-06T13:11:00;14.70;99.90
2010;DHT22;1008;47.404;8.502;2023-04-06T13:13:28;15.00;99.90
2010;DHT22;1008;47.404;8.502;2023-04-06T13:15:58;14.60;99.90
2010;DHT22;1008;47.404;8.502;2023-04-06T13:18:26;14.80;99.90
2010;DHT22;1008;47.404;8.502;2023-04-06T13:20:55;14.70;99.90
2010;DHT22;1008;47.404;8.502;2023-04-06T13:23:22;14.30;99.90
2010;DHT22;1008;47.404;8.502;2023-04-06T13:25:57;14.10;99.90
2010;DHT22;1008;47.404;8.502;2023-04-06T13:28:24;13.80;99.90
2010;DHT22;1008;47.404;8.502;2023-04-06T13:30:51;13.90;99.90
2010;DHT22;1008;47.404;8.502;2023-04-06T13:33:18;13.90;99.90
2010;DHT22;1008;47.404;8.502;2023-04-06T13:35:45;13.80;99.90
2010;DHT22;1008;47.404;8.502;2023-04-06T13:38:13;14.30;99.90
2010;DHT22;1008;47.404;8.502;2023-04-06T13:40:42;14.30;99.90
2010;DHT22;1008;47.404;8.502;2023-04-06T13:43:09;14.40;99.90
2010;DHT22;1008;47.404;8.502;2023-04-06T13:45:36;14.30;99.90
2010;DHT22;1008;47.404;8.502;2023-04-06T13:48:04;14.20;99.90
2010;DHT22;1008;47.404;8.502;2023-04-06T13:50:31;14.40;99.90
2010;DHT22;1008;47.404;8.502;2023-04-06T13:52:58;14.00;99.90
2010;DHT22;1008;47.404;8.502;2023-04-06T13:55:27;14.20;99.90
2010;DHT22;1008;47.404;8.502;2023-04-06T13:57:53;14.10;99.90
2010;DHT22;1008;47.404;8.502;2023-04-06T14:00:21;13.90;99.90
2010;DHT22;1008;47.404;8.502;2023-04-06T14:02:47;13.90;99.90
2010;DHT22;1008;47.404;8.502;2023-04-06T14:05:14;13.80;99.90
2010;DHT22;1008;47.404;8.502;2023-04-06T14:07:41;13.70;99.90
2010;DHT22;1008;47.404;8.502;2023-04-06T14:10:09;13.20;99.90
2010;DHT22;1008;47.404;8.502;2023-04-06T14:12:40;13.50;99.90
2010;DHT22;1008;47.404;8.502;2023-04-06T14:15:08;13.70;99.90
2010;DHT22;1008;47.404;8.502;2023-04-06T14:17:36;13.80;99.90
2010;DHT22;1008;47.404;8.502;2023-04-06T14:20:03;14.20;99.90
2010;DHT22;1008;47.404;8.502;2023-04-06T14:22:30;14.20;99.90
2010;DHT22;1008;47.404;8.502;2023-04-06T14:24:57;13.80;99.90
2010;DHT22;1008;47.404;8.502;2023-04-06T14:27:24;13.90;99.90
2010;DHT22;1008;47.404;8.502;2023-04-06T14:29:52;14.30;99.90
2010;DHT22;1008;47.404;8.502;2023-04-06T14:32:20;14.30;99.90
2010;DHT22;1008;47.404;8.502;2023-04-06T14:34:47;14.20;99.90
2010;DHT22;1008;47.404;8.502;2023-04-06T14:37:13;14.20;99.90
2010;DHT22;1008;47.404;8.502;2023-04-06T14:39:40;14.40;99.90
2010;DHT22;1008;47.404;8.502;2023-04-06T14:42:07;14.70;99.90
2010;DHT22;1008;47.404;8.502;2023-04-06T14:44:34;14.70;99.90
2010;DHT22;1008;47.404;8.502;2023-04-06T14:47:03;14.20;99.90
2010;DHT22;1008;47.404;8.502;2023-04-06T14:49:30;14.00;99.90
2010;DHT22;1008;47.404;8.502;2023-04-06T14:51:57;13.90;99.90
2010;DHT22;1008;47.404;8.502;2023-04-06T14:54:25;13.70;99.90
2010;DHT22;1008;47.404;8.502;2023-04-06T14:56:52;13.70;99.90
2010;DHT22;1008;47.404;8.502;2023-04-06T14:59:19;13.90;99.90
2010;DHT22;1008;47.404;8.502;2023-04-06T15:01:45;13.80;99.90
2010;DHT22;1008;47.404;8.502;2023-04-06T15:04:13;13.70;99.90
2010;DHT22;1008;47.404;8.502;2023-04-06T15:06:40;13.60;99.90
2010;DHT22;1008;47.404;8.502;2023-04-06T15:09:07;13.40;99.90
2010;DHT22;1008;47.404;8.502;2023-04-06T15:11:34;13.50;99.90
2010;DHT22;1008;47.404;8.502;2023-04-06T15:14:01;13.20;99.90
2010;DHT22;1008;47.404;8.502;2023-04-06T15:16:28;13.30;99.90
2010;DHT22;1008;47.404;8.502;2023-04-06T15:18:57;13.40;99.90
2010;DHT22;1008;47.404;8.502;2023-04-06T15:21:25;13.10;99.90
2010;DHT22;1008;47.404;8.502;2023-04-06T15:23:52;13.00;99.90
2010;DHT22;1008;47.404;8.502;2023-04-06T15:26:20;12.70;99.90
2010;DHT22;1008;47.404;8.502;2023-04-06T15:28:46;12.70;99.90
2010;DHT22;1008;47.404;8.502;2023-04-06T15:31:14;12.90;99.90
2010;DHT22;1008;47.404;8.502;2023-04-06T15:33:41;13.00;99.90
2010;DHT22;1008;47.404;8.502;2023-04-06T15:36:21;13.10;99.90
2010;DHT22;1008;47.404;8.502;2023-04-06T15:38:50;13.10;99.90
2010;DHT22;1008;47.404;8.502;2023-04-06T15:41:16;12.90;99.90
2010;DHT22;1008;47.404;8.502;2023-04-06T15:43:44;12.80;99.90
2010;DHT22;1008;47.404;8.502;2023-04-06T15:46:11;12.80;99.90
2010;DHT22;1008;47.404;8.502;2023-04-06T15:48:38;12.90;99.90
2010;DHT22;1008;47.404;8.502;2023-04-06T15:51:05;13.00;99.90
2010;DHT22;1008;47.404;8.502;2023-04-06T15:53:32;12.90;99.90
2010;DHT22;1008;47.404;8.502;2023-04-06T15:56:00;13.10;99.90
2010;DHT22;1008;47.404;8.502;2023-04-06T15:58:28;13.10;99.90
2010;DHT22;1008;47.404;8.502;2023-04-06T16:00:56;13.00;99.90
2010;DHT22;1008;47.404;8.502;2023-04-06T16:03:23;13.00;99.90
2010;DHT22;1008;47.404;8.502;2023-04-06T16:05:52;12.90;99.90
2010;DHT22;1008;47.404;8.502;2023-04-06T16:08:19;12.70;99.90
2010;DHT22;1008;47.404;8.502;2023-04-06T16:10:46;12.60;99.90